Time;durP1;ratioP1;P1;durP2;ratioP2;P2;SDS_P1;SDS_P2;PMS_P1;PMS_P2;Temp;Humidity;BMP_temperature;BMP_pressure;BME280_temperature;BME280_humidity;BME280_pressure;Samples;Min_cycle;Max_cycle;Signal;HPM_P1;HPM_P2
2022/01/18 00:01:41;;;;;;;11.13;1.83;;;3.40;99.90;;;;;;5058092;28;20443;-48
2022/01/18 00:04:08;;;;;;;9.40;2.20;;;3.30;99.90;;;;;;5057777;28;20567;-46
2022/01/18 00:06:37;;;;;;;14.13;2.30;;;3.30;99.90;;;;;;5057991;28;20415;-50
2022/01/18 00:09:04;;;;;;;7.87;2.33;;;3.60;99.90;;;;;;5057717;28;20437;-46
2022/01/18 00:11:40;;;;;;;10.03;2.07;;;3.60;99.90;;;;;;5059008;28;20446;-47
2022/01/18 00:14:13;;;;;;;9.90;2.10;;;3.80;99.90;;;;;;5061587;28;20443;-49
2022/01/18 00:17:00;;;;;;;11.63;2.10;;;4.00;99.90;;;;;;5061494;28;20487;-46
2022/01/18 00:19:28;;;;;;;9.90;1.93;;;4.40;99.90;;;;;;5061510;28;20432;-48
2022/01/18 00:22:07;;;;;;;12.13;2.27;;;4.20;99.90;;;;;;5061479;28;20468;-50
2022/01/18 00:24:34;;;;;;;12.10;1.90;;;3.80;99.90;;;;;;5061554;28;20413;-49
2022/01/18 00:27:08;;;;;;;2.93;1.70;;;3.70;99.90;;;;;;5061737;28;20420;-48
2022/01/18 00:29:48;;;;;;;1.70;1.03;;;3.60;99.90;;;;;;5061400;28;20437;-50
2022/01/18 00:32:24;;;;;;;11.00;4.13;;;3.70;99.90;;;;;;5061398;28;20416;-48
2022/01/18 00:34:55;;;;;;;15.53;1.77;;;3.70;99.90;;;;;;5061188;28;20451;-46
2022/01/18 00:37:32;;;;;;;6.20;2.13;;;3.90;99.90;;;;;;5061244;28;20417;-49
2022/01/18 00:39:59;;;;;;;4.90;1.67;;;3.70;99.90;;;;;;5060976;28;20440;-47
2022/01/18 00:42:28;;;;;;;4.57;1.70;;;3.90;99.90;;;;;;5061144;28;20483;-53
2022/01/18 00:44:55;;;;;;;11.00;2.43;;;3.80;99.90;;;;;;5061091;28;20424;-46
2022/01/18 00:47:22;;;;;;;10.80;3.03;;;3.80;99.90;;;;;;5060917;28;20466;-50
2022/01/18 00:49:57;;;;;;;14.03;2.57;;;3.80;99.90;;;;;;5060993;28;20413;-49
2022/01/18 00:52:25;;;;;;;15.23;3.27;;;3.70;99.90;;;;;;5060885;28;20436;-48
2022/01/18 00:54:52;;;;;;;5.93;2.00;;;3.60;99.90;;;;;;5060829;28;20436;-49
2022/01/18 00:57:20;;;;;;;9.00;2.77;;;3.30;99.90;;;;;;5060893;28;20552;-47
2022/01/18 00:59:50;;;;;;;11.90;1.60;;;3.20;99.90;;;;;;5060584;28;20524;-46
2022/01/18 01:02:18;;;;;;;8.77;2.20;;;3.20;99.90;;;;;;5060764;28;20496;-45
2022/01/18 01:04:48;;;;;;;11.87;3.63;;;3.20;99.90;;;;;;5060638;28;20440;-47
2022/01/18 01:07:16;;;;;;;7.30;2.20;;;3.10;99.90;;;;;;5060696;28;20419;-45
2022/01/18 01:09:44;;;;;;;9.83;2.50;;;3.00;99.90;;;;;;5060549;28;20497;-50
2022/01/18 01:12:12;;;;;;;6.73;2.00;;;3.10;99.90;;;;;;5060376;28;20516;-45
2022/01/18 01:14:40;;;;;;;7.33;1.83;;;3.00;99.90;;;;;;5060464;28;20459;-45
2022/01/18 01:17:25;;;;;;;6.97;1.80;;;2.90;99.90;;;;;;5060265;28;20512;-47
2022/01/18 01:34:21;;;;;;;6.07;1.90;;;2.50;99.90;;;;;;5060389;28;20421;-50
2022/01/18 01:37:12;;;;;;;10.60;1.83;;;2.50;99.90;;;;;;5060248;28;20408;-46
2022/01/18 01:42:43;;;;;;;5.63;1.90;;;2.50;99.90;;;;;;5059989;28;20432;-46
2022/01/18 01:45:15;;;;;;;6.77;2.07;;;2.50;99.90;;;;;;5059983;28;20421;-51
2022/01/18 01:47:49;;;;;;;12.60;1.90;;;2.60;99.90;;;;;;5059785;28;20481;-48
2022/01/18 01:50:19;;;;;;;6.10;2.33;;;2.60;99.90;;;;;;5059859;28;20498;-46
2022/01/18 01:52:47;;;;;;;7.90;1.87;;;2.70;99.90;;;;;;5059798;28;20456;-47
2022/01/18 01:55:14;;;;;;;3.77;1.50;;;2.90;99.90;;;;;;5059681;28;20425;-52
2022/01/18 01:57:41;;;;;;;3.97;1.40;;;2.80;99.90;;;;;;5059456;28;20451;-45
2022/01/18 02:00:12;;;;;;;13.67;2.10;;;2.70;99.90;;;;;;5059544;28;20440;-45
2022/01/18 02:02:41;;;;;;;9.97;2.23;;;2.70;99.90;;;;;;5059622;28;20405;-46
2022/01/18 02:05:09;;;;;;;9.70;2.73;;;2.70;99.90;;;;;;5059419;28;20717;-47
2022/01/18 02:07:37;;;;;;;6.17;1.70;;;2.60;99.90;;;;;;5059499;28;20432;-48
2022/01/18 02:10:07;;;;;;;8.43;2.40;;;2.60;99.90;;;;;;5059510;28;20416;-49
2022/01/18 02:12:34;;;;;;;11.80;3.10;;;2.50;99.90;;;;;;5059267;28;20472;-49
2022/01/18 02:15:14;;;;;;;20.67;2.40;;;2.50;99.90;;;;;;5059344;28;20445;-50
2022/01/18 02:23:20;;;;;;;11.33;2.33;;;2.60;99.90;;;;;;5059304;28;20439;-49
2022/01/18 02:25:50;;;;;;;7.70;2.33;;;2.80;99.90;;;;;;5059180;28;20421;-48
2022/01/18 02:28:18;;;;;;;13.60;3.50;;;2.70;99.90;;;;;;5059155;28;20429;-48
2022/01/18 02:30:46;;;;;;;13.20;2.10;;;2.60;99.90;;;;;;5058909;28;20539;-45
2022/01/18 02:33:16;;;;;;;13.40;2.10;;;2.60;99.90;;;;;;5059021;28;20460;-51
2022/01/18 02:35:47;;;;;;;9.77;1.53;;;2.70;99.90;;;;;;5058569;28;20409;-45
2022/01/18 02:38:16;;;;;;;2.03;1.10;;;2.70;99.90;;;;;;5059013;28;20476;-50
2022/01/18 02:40:43;;;;;;;10.50;2.47;;;2.80;99.90;;;;;;5058929;28;20429;-47
2022/01/18 02:45:57;;;;;;;6.10;1.53;;;2.80;99.90;;;;;;5058964;28;20469;-49
2022/01/18 02:48:26;;;;;;;19.67;2.27;;;2.90;99.90;;;;;;5058941;28;20456;-47
2022/01/18 02:50:55;;;;;;;3.40;1.73;;;2.70;99.90;;;;;;5058711;28;20452;-47
2022/01/18 03:34:51;;;;;;;3.17;1.50;;;2.30;99.90;;;;;;5493932;22;20823;-54
2022/01/18 03:37:18;;;;;;;1.20;1.00;;;2.20;99.90;;;;;;5075176;28;20462;-49
2022/01/18 03:39:45;;;;;;;14.93;1.40;;;2.10;99.90;;;;;;5075607;28;20416;-54
2022/01/18 03:42:34;;;;;;;8.47;1.83;;;2.00;99.90;;;;;;5075458;28;20451;-48
2022/01/18 03:45:04;;;;;;;4.07;2.13;;;1.90;99.90;;;;;;5074854;28;20525;-57
2022/01/18 03:47:31;;;;;;;11.37;1.83;;;1.90;99.90;;;;;;5078057;28;20518;-55
2022/01/18 03:50:00;;;;;;;5.57;1.77;;;2.00;99.90;;;;;;5078199;28;20467;-53
2022/01/18 03:52:27;;;;;;;2.70;1.60;;;2.00;99.90;;;;;;5078401;28;20501;-55
2022/01/18 03:54:54;;;;;;;9.87;1.97;;;2.00;99.90;;;;;;5078362;28;20474;-54
2022/01/18 03:57:21;;;;;;;12.30;2.80;;;2.00;99.90;;;;;;5078261;28;20464;-55
2022/01/18 03:59:48;;;;;;;4.50;2.00;;;2.00;99.90;;;;;;5078736;28;20473;-57
2022/01/18 04:02:15;;;;;;;3.80;2.27;;;2.10;99.90;;;;;;5077964;28;20467;-58
2022/01/18 04:04:42;;;;;;;6.20;2.30;;;2.20;99.90;;;;;;5077930;28;20439;-59
2022/01/18 04:07:10;;;;;;;11.53;1.70;;;2.20;99.90;;;;;;5077926;28;20495;-56
2022/01/18 04:09:37;;;;;;;29.67;4.00;;;2.20;99.90;;;;;;5077983;28;20470;-54
2022/01/18 04:12:05;;;;;;;8.07;2.43;;;2.20;99.90;;;;;;5077947;28;20505;-57
2022/01/18 04:14:32;;;;;;;8.20;1.83;;;2.20;99.90;;;;;;5077816;28;20443;-53
2022/01/18 04:17:06;;;;;;;18.00;1.50;;;2.20;99.90;;;;;;5078151;28;20474;-52
2022/01/18 04:27:57;;;;;;;3.00;2.20;;;2.20;99.90;;;;;;5077528;28;20488;-56
2022/01/18 04:30:24;;;;;;;8.33;1.37;;;2.30;99.90;;;;;;5077769;28;20411;-55
2022/01/18 04:32:53;;;;;;;8.00;1.03;;;2.40;99.90;;;;;;5077551;28;20498;-55
2022/01/18 04:35:20;;;;;;;11.03;2.30;;;2.30;99.90;;;;;;5077844;28;20458;-53
2022/01/18 04:37:48;;;;;;;13.73;1.87;;;2.40;99.90;;;;;;5077463;28;20451;-49
2022/01/18 04:40:17;;;;;;;6.70;2.03;;;2.40;99.90;;;;;;5077685;28;20439;-54
2022/01/18 04:43:07;;;;;;;14.17;3.00;;;2.40;99.90;;;;;;5077679;28;21008;-56
2022/01/18 04:48:26;;;;;;;1.63;1.20;;;2.50;99.90;;;;;;5077475;28;20475;-55
2022/01/18 04:50:54;;;;;;;9.50;2.53;;;2.50;99.90;;;;;;5076987;28;20474;-57
2022/01/18 04:53:22;;;;;;;12.40;1.33;;;2.50;99.90;;;;;;5077717;28;20445;-53
2022/01/18 04:55:54;;;;;;;5.40;1.77;;;2.60;99.90;;;;;;5077363;28;20443;-57
2022/01/18 04:58:22;;;;;;;6.70;2.20;;;2.70;99.90;;;;;;5077347;28;20475;-55
2022/01/18 05:00:51;;;;;;;8.30;2.33;;;2.80;99.90;;;;;;5077380;28;20455;-57
2022/01/18 05:03:18;;;;;;;2.50;1.47;;;2.80;99.90;;;;;;5077296;28;20524;-54
2022/01/18 05:05:44;;;;;;;2.60;1.70;;;2.80;99.90;;;;;;5077535;28;20466;-56
2022/01/18 05:08:13;;;;;;;18.63;2.87;;;2.80;99.90;;;;;;5077540;28;20460;-58
2022/01/18 05:10:42;;;;;;;5.70;2.60;;;2.90;99.90;;;;;;5077669;28;20444;-58
2022/01/18 05:13:19;;;;;;;12.67;1.87;;;2.90;99.90;;;;;;5077102;28;20471;-58
2022/01/18 05:15:51;;;;;;;11.03;1.87;;;2.90;99.90;;;;;;5076941;28;20589;-54
2022/01/18 05:21:22;;;;;;;2.60;1.23;;;2.90;99.90;;;;;;5077013;28;20442;-54
2022/01/18 05:23:48;;;;;;;9.00;2.70;;;2.90;99.90;;;;;;5077298;28;20499;-56
2022/01/18 05:26:16;;;;;;;5.83;1.67;;;3.00;99.90;;;;;;5077148;28;20521;-54
2022/01/18 05:28:43;;;;;;;5.67;1.40;;;3.00;99.90;;;;;;5077070;28;20205;-57
2022/01/18 05:31:10;;;;;;;10.50;2.00;;;3.10;99.90;;;;;;5076945;28;20470;-56
2022/01/18 05:33:38;;;;;;;9.70;2.10;;;3.10;99.90;;;;;;5076498;28;20459;-58
2022/01/18 05:36:05;;;;;;;7.60;2.57;;;3.10;99.90;;;;;;5076859;28;20504;-54
2022/01/18 05:38:33;;;;;;;7.33;1.73;;;3.10;99.90;;;;;;5077011;28;20525;-57
2022/01/18 05:40:59;;;;;;;8.43;2.40;;;3.00;99.90;;;;;;5077177;28;20432;-55
2022/01/18 05:43:27;;;;;;;56.07;4.33;;;3.00;99.90;;;;;;5076680;28;20451;-54
2022/01/18 05:45:54;;;;;;;2.40;1.20;;;3.10;99.90;;;;;;5076566;28;20466;-53
2022/01/18 05:48:21;;;;;;;6.00;1.80;;;3.10;99.90;;;;;;5076984;28;20474;-57
2022/01/18 05:50:48;;;;;;;19.47;3.40;;;3.10;99.90;;;;;;5076858;28;20509;-59
2022/01/18 05:53:14;;;;;;;8.67;1.57;;;3.10;99.90;;;;;;5076992;28;20484;-54
2022/01/18 05:55:41;;;;;;;10.43;2.03;;;3.00;99.90;;;;;;5076919;28;20467;-52
2022/01/18 05:58:08;;;;;;;3.63;1.33;;;3.00;99.90;;;;;;5076776;28;20440;-58
2022/01/18 06:00:38;;;;;;;8.33;1.40;;;3.00;99.90;;;;;;5076784;28;20499;-52
2022/01/18 06:03:12;;;;;;;12.00;2.30;;;3.00;99.90;;;;;;5076874;28;20421;-57
2022/01/18 06:08:24;;;;;;;8.90;1.63;;;2.90;99.90;;;;;;5075454;28;20430;-57
2022/01/18 06:10:51;;;;;;;2.87;1.87;;;2.90;99.90;;;;;;5075662;28;20451;-55
2022/01/18 06:13:18;;;;;;;12.10;2.53;;;2.90;99.90;;;;;;5076400;28;20939;-58
2022/01/18 06:15:46;;;;;;;1.80;1.20;;;2.80;99.90;;;;;;5076104;28;20454;-56
2022/01/18 06:18:14;;;;;;;7.40;1.83;;;2.80;99.90;;;;;;5075704;28;20448;-56
2022/01/18 06:20:43;;;;;;;3.27;1.93;;;2.80;99.90;;;;;;5075438;28;20458;-58
2022/01/18 06:23:09;;;;;;;4.30;1.87;;;2.80;99.90;;;;;;5075858;28;20464;-48
2022/01/18 06:25:37;;;;;;;9.30;2.20;;;2.80;99.90;;;;;;5076192;28;20490;-54
2022/01/18 06:28:04;;;;;;;5.63;2.13;;;2.80;99.90;;;;;;5076029;28;20440;-54
2022/01/18 06:30:30;;;;;;;4.40;1.33;;;2.80;99.90;;;;;;5076675;28;20440;-51
2022/01/18 06:32:58;;;;;;;12.40;2.23;;;2.80;99.90;;;;;;5076200;28;20510;-57
2022/01/18 06:35:25;;;;;;;20.70;1.43;;;2.80;99.90;;;;;;5076149;28;20459;-53
2022/01/18 06:37:52;;;;;;;3.03;1.57;;;2.80;99.90;;;;;;5076293;28;20440;-57
2022/01/18 06:40:19;;;;;;;42.17;3.17;;;2.70;99.90;;;;;;5075495;28;20486;-58
2022/01/18 06:42:45;;;;;;;13.17;3.33;;;2.70;99.90;;;;;;5076052;28;20446;-52
2022/01/18 06:45:12;;;;;;;5.60;2.30;;;2.80;99.90;;;;;;5075771;28;20460;-56
2022/01/18 06:47:40;;;;;;;9.00;2.23;;;2.80;99.90;;;;;;5075728;28;20459;-58
2022/01/18 06:50:10;;;;;;;14.63;1.73;;;2.80;99.90;;;;;;5075459;28;20475;-54
2022/01/18 06:52:37;;;;;;;4.83;1.40;;;2.80;99.90;;;;;;5075719;28;20459;-56
2022/01/18 06:55:05;;;;;;;3.80;1.53;;;2.80;99.90;;;;;;5075154;28;20491;-57
2022/01/18 06:57:31;;;;;;;5.77;1.47;;;2.80;99.90;;;;;;5075242;28;20459;-56
2022/01/18 06:59:58;;;;;;;8.27;2.50;;;2.80;99.90;;;;;;5075658;28;20486;-55
2022/01/18 07:02:25;;;;;;;6.40;1.97;;;2.80;99.90;;;;;;5075390;28;20459;-55
2022/01/18 07:04:55;;;;;;;6.63;2.73;;;2.70;99.90;;;;;;5075200;28;20428;-58
2022/01/18 07:07:23;;;;;;;23.33;4.60;;;2.80;99.90;;;;;;5074951;28;20428;-59
2022/01/18 07:09:50;;;;;;;4.43;1.63;;;2.80;99.90;;;;;;5075669;28;20523;-57
2022/01/18 07:12:18;;;;;;;9.97;2.60;;;2.80;99.90;;;;;;5075935;28;20497;-61
2022/01/18 07:14:45;;;;;;;8.13;2.60;;;2.80;99.90;;;;;;5075989;28;20440;-56
2022/01/18 07:17:12;;;;;;;3.00;1.47;;;2.80;99.90;;;;;;5057298;28;20551;-60
2022/01/18 07:19:39;;;;;;;5.57;1.60;;;2.90;99.90;;;;;;5054947;28;20475;-57
2022/01/18 07:22:06;;;;;;;7.00;1.70;;;3.00;99.90;;;;;;5054758;28;20510;-55
2022/01/18 07:24:39;;;;;;;3.97;1.70;;;3.10;99.90;;;;;;5054957;28;20448;-56
2022/01/18 07:27:08;;;;;;;5.67;1.80;;;3.10;99.90;;;;;;5054708;28;20527;-55
2022/01/18 07:29:36;;;;;;;2.90;1.60;;;3.20;99.90;;;;;;5054642;28;20447;-56
2022/01/18 07:32:03;;;;;;;4.50;3.30;;;3.30;99.90;;;;;;5054704;28;20557;-58
2022/01/18 07:34:32;;;;;;;9.50;1.87;;;3.30;99.90;;;;;;5054193;28;20994;-56
2022/01/18 07:36:59;;;;;;;8.27;1.70;;;3.40;99.90;;;;;;5054420;28;20566;-55
2022/01/18 07:39:25;;;;;;;4.57;1.90;;;3.50;99.90;;;;;;5054775;28;20447;-54
2022/01/18 07:41:53;;;;;;;8.43;2.30;;;3.50;99.90;;;;;;5055069;28;20471;-51
2022/01/18 07:44:20;;;;;;;6.80;3.10;;;3.60;99.90;;;;;;5055010;28;20460;-58
2022/01/18 07:46:47;;;;;;;7.80;2.10;;;3.70;99.90;;;;;;5054460;28;20444;-55
2022/01/18 07:49:14;;;;;;;7.60;2.13;;;3.80;99.90;;;;;;5054186;28;20416;-57
2022/01/18 07:51:40;;;;;;;6.00;3.17;;;3.90;99.90;;;;;;5054210;28;20896;-55
2022/01/18 07:54:08;;;;;;;9.20;1.77;;;3.90;99.90;;;;;;5054368;28;20453;-56
2022/01/18 07:56:35;;;;;;;5.53;3.93;;;4.00;99.90;;;;;;5053801;28;20468;-58
2022/01/18 07:59:03;;;;;;;18.17;2.60;;;4.00;99.90;;;;;;5054382;28;20484;-57
2022/01/18 08:01:30;;;;;;;9.13;1.70;;;4.00;99.90;;;;;;5053655;28;20546;-59
2022/01/18 08:03:57;;;;;;;10.90;1.43;;;4.10;99.90;;;;;;5055064;28;20494;-59
2022/01/18 08:06:23;;;;;;;6.87;1.83;;;4.10;99.90;;;;;;5054312;28;20458;-56
2022/01/18 08:08:50;;;;;;;6.30;1.90;;;4.30;99.90;;;;;;5053849;28;20925;-61
2022/01/18 08:11:18;;;;;;;5.67;2.10;;;4.40;99.90;;;;;;5055316;28;20454;-59
2022/01/18 08:13:48;;;;;;;3.60;2.17;;;4.40;99.90;;;;;;5054332;28;20483;-61
2022/01/18 08:16:46;;;;;;;2.27;1.70;;;4.50;99.90;;;;;;5055469;28;20481;-62
2022/01/18 08:19:13;;;;;;;3.10;1.90;;;4.60;99.90;;;;;;5055696;28;20463;-61
2022/01/18 08:21:40;;;;;;;7.47;1.80;;;4.70;99.90;;;;;;5055295;28;20479;-65
2022/01/18 08:24:07;;;;;;;6.90;2.10;;;4.70;99.90;;;;;;5054687;28;20497;-59
2022/01/18 08:26:34;;;;;;;13.80;3.83;;;4.80;99.90;;;;;;5053844;28;20948;-58
2022/01/18 08:29:01;;;;;;;3.57;1.93;;;4.90;99.90;;;;;;5054172;28;20448;-59
2022/01/18 08:31:29;;;;;;;2.90;1.27;;;5.00;99.90;;;;;;5053572;28;20444;-59
2022/01/18 08:33:56;;;;;;;3.30;1.47;;;5.00;99.90;;;;;;5056667;28;20494;-58
2022/01/18 08:36:23;;;;;;;2.70;1.47;;;5.00;99.90;;;;;;5057105;28;20991;-58
2022/01/18 08:38:49;;;;;;;4.43;1.70;;;5.10;99.90;;;;;;5057743;28;20467;-53
2022/01/18 08:41:17;;;;;;;3.57;1.73;;;5.10;99.90;;;;;;5058231;28;20459;-60
2022/01/18 08:43:44;;;;;;;3.57;1.90;;;5.10;99.90;;;;;;5057401;28;20558;-63
2022/01/18 08:46:11;;;;;;;20.13;2.57;;;5.20;99.90;;;;;;5058645;28;20435;-60
2022/01/18 08:48:40;;;;;;;8.70;2.70;;;5.20;99.90;;;;;;5059084;28;20973;-57
2022/01/18 08:51:07;;;;;;;12.30;2.27;;;5.30;99.90;;;;;;5058121;28;20442;-59
2022/01/18 08:53:33;;;;;;;7.83;2.20;;;5.30;99.90;;;;;;5057664;28;20483;-60
2022/01/18 08:56:00;;;;;;;3.57;1.47;;;5.30;99.90;;;;;;5057493;28;20508;-63
2022/01/18 08:58:27;;;;;;;4.37;1.70;;;5.40;99.90;;;;;;5056915;28;20457;-59
2022/01/18 09:00:55;;;;;;;6.00;2.20;;;5.40;99.90;;;;;;5057121;28;20475;-62
2022/01/18 09:03:22;;;;;;;13.27;1.70;;;5.40;99.90;;;;;;5057298;28;20456;-60
2022/01/18 09:05:51;;;;;;;10.53;2.80;;;5.40;99.90;;;;;;5057326;28;20991;-58
2022/01/18 09:08:20;;;;;;;14.70;3.10;;;5.50;99.90;;;;;;5057261;28;20424;-56
2022/01/18 09:10:47;;;;;;;7.73;2.03;;;5.60;99.90;;;;;;5056968;28;20519;-60
2022/01/18 09:13:16;;;;;;;16.00;2.10;;;5.60;99.90;;;;;;5056362;28;20486;-58
2022/01/18 09:15:43;;;;;;;15.57;3.47;;;5.70;99.90;;;;;;5056405;28;20473;-56
2022/01/18 09:18:11;;;;;;;5.13;1.80;;;5.70;99.90;;;;;;5056599;28;20900;-57
2022/01/18 09:20:39;;;;;;;4.60;2.20;;;5.80;99.90;;;;;;5056277;28;20517;-59
2022/01/18 09:23:08;;;;;;;2.17;1.70;;;5.80;99.90;;;;;;5056639;28;20538;-59
2022/01/18 09:25:36;;;;;;;7.37;2.53;;;5.80;99.90;;;;;;5056820;28;20517;-59
2022/01/18 09:28:04;;;;;;;7.50;2.40;;;5.90;99.90;;;;;;5057060;28;20788;-60
2022/01/18 09:30:33;;;;;;;4.77;1.77;;;5.90;99.90;;;;;;5056529;28;20543;-59
2022/01/18 09:33:00;;;;;;;10.07;2.67;;;5.90;99.90;;;;;;5056098;28;20480;-59
2022/01/18 09:35:27;;;;;;;7.60;3.03;;;6.00;99.90;;;;;;5056070;28;20490;-57
2022/01/18 09:37:55;;;;;;;8.03;2.40;;;6.00;99.90;;;;;;5056552;28;20452;-58
2022/01/18 09:40:24;;;;;;;8.80;2.83;;;5.90;99.90;;;;;;5056722;28;20472;-61
2022/01/18 09:42:58;;;;;;;8.20;1.60;;;5.80;99.90;;;;;;5056999;28;20464;-58
2022/01/18 09:45:26;;;;;;;6.03;1.90;;;5.90;99.90;;;;;;5055594;28;20444;-57
2022/01/18 09:47:55;;;;;;;3.00;1.80;;;5.90;99.90;;;;;;5055757;28;20425;-57
2022/01/18 09:50:27;;;;;;;3.40;1.20;;;6.00;99.90;;;;;;5055680;28;20444;-57
2022/01/18 09:52:55;;;;;;;7.53;1.83;;;6.10;99.90;;;;;;5055954;28;20555;-57
2022/01/18 09:55:25;;;;;;;5.50;1.60;;;6.20;99.90;;;;;;5044905;28;20487;-56
2022/01/18 09:57:53;;;;;;;14.40;2.37;;;6.20;99.90;;;;;;5037512;28;20470;-58
2022/01/18 10:00:21;;;;;;;5.27;1.40;;;6.20;99.90;;;;;;5040289;28;20437;-59
2022/01/18 10:02:49;;;;;;;4.60;1.67;;;6.30;99.90;;;;;;5039341;28;20469;-60
2022/01/18 10:05:23;;;;;;;1.93;1.73;;;6.40;99.90;;;;;;5038597;28;20451;-59
2022/01/18 10:07:58;;;;;;;4.70;1.90;;;6.50;99.90;;;;;;5039124;28;20428;-58
2022/01/18 10:10:41;;;;;;;5.40;2.70;;;6.50;99.90;;;;;;5039023;28;20448;-56
2022/01/18 10:13:09;;;;;;;11.47;2.47;;;6.50;99.90;;;;;;5038387;28;20476;-56
2022/01/18 10:15:36;;;;;;;5.97;2.20;;;6.50;99.90;;;;;;5038842;28;20527;-59
2022/01/18 10:18:06;;;;;;;5.30;1.60;;;6.40;99.90;;;;;;5039428;28;20454;-54
2022/01/18 10:20:33;;;;;;;3.47;2.10;;;6.40;99.90;;;;;;5039438;28;20548;-55
2022/01/18 10:23:00;;;;;;;4.53;1.43;;;6.30;99.90;;;;;;5039387;28;20463;-58
2022/01/18 10:25:30;;;;;;;10.20;2.70;;;6.20;99.90;;;;;;5039724;28;20799;-56
2022/01/18 10:27:58;;;;;;;1.50;1.27;;;6.30;99.90;;;;;;5040244;28;20474;-56
2022/01/18 10:30:37;;;;;;;7.07;2.97;;;6.30;99.90;;;;;;5040731;28;20452;-55
2022/01/18 10:33:11;;;;;;;5.70;1.47;;;6.30;99.90;;;;;;5040309;28;20475;-55
2022/01/18 10:36:02;;;;;;;3.70;1.43;;;6.40;99.90;;;;;;5038030;28;20536;-58
2022/01/18 10:38:29;;;;;;;7.73;1.80;;;6.40;99.90;;;;;;5038850;28;20429;-58
2022/01/18 10:40:57;;;;;;;12.00;2.70;;;6.50;99.90;;;;;;5038984;28;20457;-58
2022/01/18 10:43:31;;;;;;;5.60;2.30;;;6.50;99.90;;;;;;5039572;28;20476;-56
2022/01/18 10:46:12;;;;;;;10.80;2.23;;;6.50;99.90;;;;;;5039057;28;20526;-60
2022/01/18 10:48:46;;;;;;;4.60;2.00;;;6.60;99.90;;;;;;5038510;28;20468;-59
2022/01/18 10:51:26;;;;;;;16.43;1.40;;;6.70;99.90;;;;;;5037844;28;20532;-57
2022/01/18 10:53:58;;;;;;;3.23;1.30;;;6.80;99.90;;;;;;5037695;28;20495;-59
2022/01/18 10:56:25;;;;;;;4.80;1.83;;;7.00;99.90;;;;;;5037390;28;20920;-59
2022/01/18 10:58:55;;;;;;;13.73;2.87;;;7.20;99.90;;;;;;5037626;28;20544;-59
2022/01/18 11:01:24;;;;;;;2.30;1.57;;;7.30;99.90;;;;;;5037646;28;20476;-52
2022/01/18 11:04:11;;;;;;;4.73;1.33;;;7.40;99.90;;;;;;5038740;28;20480;-58
2022/01/18 11:06:42;;;;;;;11.57;1.73;;;7.40;99.90;;;;;;5036814;28;20516;-58
2022/01/18 11:09:14;;;;;;;6.63;1.67;;;7.40;99.90;;;;;;5036403;28;20465;-57
2022/01/18 11:11:44;;;;;;;2.30;0.90;;;7.30;99.90;;;;;;5036387;28;20532;-58
2022/01/18 11:14:17;;;;;;;5.17;1.50;;;7.20;99.90;;;;;;5040611;28;20476;-55
2022/01/18 11:16:46;;;;;;;10.27;1.40;;;7.00;99.90;;;;;;5054692;28;20504;-49
2022/01/18 11:19:31;;;;;;;7.50;1.70;;;7.00;99.90;;;;;;5053424;28;20436;-49
2022/01/18 11:22:00;;;;;;;1.17;0.70;;;6.90;99.90;;;;;;5052744;28;20536;-49
2022/01/18 11:24:29;;;;;;;6.20;1.80;;;6.80;99.90;;;;;;5053062;28;20422;-56
2022/01/18 11:26:57;;;;;;;4.30;1.97;;;6.80;99.90;;;;;;5052244;28;20472;-52
2022/01/18 11:29:26;;;;;;;7.60;1.30;;;6.80;99.90;;;;;;5053349;28;20444;-55
2022/01/18 11:31:54;;;;;;;2.27;1.87;;;6.70;99.90;;;;;;5053242;28;20496;-53
2022/01/18 11:34:28;;;;;;;7.13;1.00;;;6.70;99.90;;;;;;5054034;28;20548;-55
2022/01/18 11:37:04;;;;;;;1.87;1.00;;;6.80;99.90;;;;;;5054835;28;20432;-53
2022/01/18 11:39:33;;;;;;;3.43;1.77;;;6.90;99.90;;;;;;5054470;28;20416;-52
2022/01/18 11:42:08;;;;;;;3.47;1.57;;;6.80;99.90;;;;;;5054499;28;20443;-54
2022/01/18 11:44:37;;;;;;;3.77;1.13;;;6.80;99.90;;;;;;5054684;28;20479;-54
2022/01/18 11:47:06;;;;;;;4.90;1.73;;;6.70;99.90;;;;;;5053959;28;20480;-52
2022/01/18 11:49:34;;;;;;;3.00;1.10;;;6.70;99.90;;;;;;5054137;28;20452;-56
2022/01/18 11:52:05;;;;;;;22.33;2.00;;;6.60;99.90;;;;;;5054771;28;20437;-61
2022/01/18 11:54:43;;;;;;;1.10;0.90;;;6.50;99.90;;;;;;5055132;28;20528;-57
2022/01/18 11:57:36;;;;;;;2.00;1.10;;;6.40;99.90;;;;;;5055505;28;20463;-57
2022/01/18 12:00:28;;;;;;;5.40;1.20;;;6.50;99.90;;;;;;5054552;28;20489;-55
2022/01/18 12:02:57;;;;;;;1.43;0.97;;;6.50;99.90;;;;;;5054241;28;20460;-53
2022/01/18 12:05:26;;;;;;;3.27;1.13;;;6.60;99.90;;;;;;5054355;28;20461;-55
2022/01/18 12:08:01;;;;;;;5.27;1.43;;;6.80;99.90;;;;;;5056540;28;20464;-56
2022/01/18 12:10:48;;;;;;;2.73;1.23;;;6.90;99.90;;;;;;5058442;28;20444;-52
2022/01/18 12:13:27;;;;;;;2.23;1.03;;;6.90;99.90;;;;;;5058532;28;20409;-51
2022/01/18 12:15:58;;;;;;;1.60;1.07;;;7.00;99.90;;;;;;5058625;28;20488;-53
2022/01/18 12:18:27;;;;;;;1.93;0.97;;;6.90;99.90;;;;;;5058539;28;20487;-60
2022/01/18 12:20:56;;;;;;;3.67;1.67;;;7.00;99.90;;;;;;5057965;28;20472;-56
2022/01/18 12:23:25;;;;;;;3.67;1.63;;;7.10;99.90;;;;;;5058205;28;20492;-60
2022/01/18 12:25:57;;;;;;;7.13;1.30;;;7.20;99.90;;;;;;5057942;28;20440;-57
2022/01/18 12:35:17;;;;;;;2.60;1.70;;;7.30;99.90;;;;;;5057135;28;20487;-55
2022/01/18 12:37:47;;;;;;;5.40;1.70;;;7.10;99.90;;;;;;5057962;28;20428;-53
2022/01/18 12:40:35;;;;;;;3.00;0.90;;;7.10;99.90;;;;;;5058043;28;20436;-56
2022/01/18 12:45:56;;;;;;;2.30;1.70;;;7.10;99.90;;;;;;5057327;28;20444;-51
2022/01/18 12:48:26;;;;;;;4.40;1.27;;;7.10;99.90;;;;;;5060499;28;20460;-52
2022/01/18 12:50:58;;;;;;;2.70;1.80;;;7.10;99.90;;;;;;5076784;28;20464;-53
2022/01/18 12:53:31;;;;;;;4.37;1.20;;;7.10;99.90;;;;;;5078122;28;20480;-55
2022/01/18 12:56:00;;;;;;;2.13;0.90;;;7.10;99.90;;;;;;5070950;28;20465;-55
2022/01/18 12:58:30;;;;;;;2.87;1.50;;;7.10;99.90;;;;;;5069342;28;20467;-60
2022/01/18 13:00:59;;;;;;;1.67;1.33;;;7.00;99.90;;;;;;5067623;28;20416;-59
2022/01/18 13:03:29;;;;;;;5.13;1.47;;;7.00;99.90;;;;;;5067479;28;20451;-56
2022/01/18 13:05:58;;;;;;;1.77;1.00;;;7.00;99.90;;;;;;5072989;28;20455;-57
2022/01/18 13:08:29;;;;;;;4.17;1.80;;;7.00;99.90;;;;;;5065536;28;20468;-51
2022/01/18 13:10:56;;;;;;;9.00;2.40;;;6.90;99.90;;;;;;5070147;28;20468;-54
2022/01/18 13:13:30;;;;;;;6.33;1.40;;;6.80;99.90;;;;;;5069080;28;20446;-56
2022/01/18 13:24:37;;;;;;;1.93;0.80;;;6.80;99.90;;;;;;5058235;28;20456;-53
2022/01/18 13:27:11;;;;;;;1.20;0.97;;;6.70;99.90;;;;;;5057807;28;20503;-55
2022/01/18 13:29:38;;;;;;;2.60;1.17;;;6.70;99.90;;;;;;5058290;28;20437;-52
2022/01/18 13:32:09;;;;;;;2.90;1.43;;;6.60;99.90;;;;;;5058132;28;20444;-51
2022/01/18 13:34:40;;;;;;;2.50;1.07;;;6.60;99.90;;;;;;5061954;28;20472;-53
2022/01/18 13:37:11;;;;;;;1.87;1.40;;;6.70;99.90;;;;;;5078726;28;20419;-54
2022/01/18 13:39:44;;;;;;;3.00;1.10;;;6.60;99.90;;;;;;5077812;28;20459;-53
2022/01/18 13:42:15;;;;;;;4.03;1.07;;;6.60;99.90;;;;;;5078333;28;20412;-54
2022/01/18 13:45:10;;;;;;;1.30;0.90;;;6.60;99.90;;;;;;5076919;28;20475;-55
2022/01/18 13:47:42;;;;;;;1.27;1.00;;;6.50;99.90;;;;;;5077756;28;20924;-53
2022/01/18 13:50:30;;;;;;;2.73;0.97;;;6.40;99.90;;;;;;5077952;28;20459;-51
2022/01/18 13:53:05;;;;;;;3.97;1.30;;;6.40;99.90;;;;;;5077199;28;20448;-53
2022/01/18 13:55:33;;;;;;;10.67;3.20;;;6.40;99.90;;;;;;5074533;28;20525;-49
2022/01/18 13:58:01;;;;;;;1.40;1.10;;;6.40;99.90;;;;;;5056301;28;20449;-51
2022/01/18 14:00:30;;;;;;;3.53;1.27;;;6.40;99.90;;;;;;5056180;28;20472;-53
2022/01/18 14:02:58;;;;;;;3.00;2.80;;;6.50;99.90;;;;;;5073107;28;20440;-55
2022/01/18 14:05:25;;;;;;;4.40;1.53;;;6.50;99.90;;;;;;5075750;28;20451;-52
2022/01/18 14:08:07;;;;;;;3.40;1.33;;;6.50;99.90;;;;;;5075909;28;20451;-56
2022/01/18 14:10:35;;;;;;;3.33;0.90;;;6.50;99.90;;;;;;5075956;28;20423;-58
2022/01/18 14:13:02;;;;;;;1.67;0.90;;;6.60;99.90;;;;;;5076424;28;20467;-56
2022/01/18 14:15:40;;;;;;;9.70;1.20;;;6.60;99.90;;;;;;5076286;28;20480;-53
2022/01/18 14:18:08;;;;;;;2.50;1.50;;;6.50;99.90;;;;;;5076572;28;20509;-53
2022/01/18 14:20:36;;;;;;;4.40;1.17;;;6.60;99.90;;;;;;5076020;28;20432;-56
2022/01/18 14:23:05;;;;;;;1.97;0.90;;;6.50;99.90;;;;;;5076058;28;20467;-56
2022/01/18 14:25:33;;;;;;;5.77;1.53;;;6.60;99.90;;;;;;5075916;28;20443;-56
2022/01/18 14:28:10;;;;;;;8.20;1.77;;;6.60;99.90;;;;;;5076201;28;20507;-55
2022/01/18 14:30:42;;;;;;;2.60;1.30;;;6.50;99.90;;;;;;5075987;28;20455;-52
2022/01/18 14:33:10;;;;;;;1.10;0.77;;;6.50;99.90;;;;;;5075821;28;20420;-54
2022/01/18 14:35:41;;;;;;;1.70;1.20;;;6.40;99.90;;;;;;5076304;28;20483;-53
2022/01/18 14:38:11;;;;;;;2.50;1.53;;;6.40;99.90;;;;;;5076307;28;20460;-54
2022/01/18 14:40:40;;;;;;;2.00;1.00;;;6.50;99.90;;;;;;5076630;28;20451;-53
2022/01/18 14:43:13;;;;;;;1.30;1.20;;;6.50;99.90;;;;;;5076078;28;20450;-56
2022/01/18 14:45:58;;;;;;;1.50;1.00;;;6.40;99.90;;;;;;5076927;28;20444;-53
2022/01/18 14:48:28;;;;;;;1.30;0.80;;;6.40;99.90;;;;;;5076521;28;20424;-49
2022/01/18 14:50:55;;;;;;;4.97;1.27;;;6.40;99.90;;;;;;5075950;28;20424;-53
2022/01/18 14:53:25;;;;;;;4.80;1.27;;;6.40;99.90;;;;;;5075204;28;20446;-54